LFRL

Lanvéoc-Poulmic Air Base Airport

Lanvéoc/Poulmic, France
TAF LFRL 221100Z 2212/2312 30010KT 9999 BKN035 TEMPO 2212/2220 30010G20KT 3000 SHRA SCT015TCU PROB30 TEMPO 2301/2308 5000 -RA OVC015
Issued Valid From Valid To
Jan-22 @ 11:00 UTC
(6 hours ago)
Jan-22 @ 12:00 UTC
(5 hours ago)
Jan-23 @ 12:00 UTC
(in 19 hours)
Jan-22 @ 12:00 to Jan-23 @ 12:00
TAF LFRL 221100Z 2212/2312 30010KT 9999 BKN035
Wind Visibility Clouds
300° at 10 knots 10,000+ meters
  • Broken at 3,500' AGL
Temporary Jan-22 @ 12:00 to Jan-22 @ 20:00
TEMPO 2212/2220 30010G20KT 3000 SHRA SCT015TCU
Wind Visibility Clouds Conditions
300° at 10 knots
 Gusting to 20 knots
2,993 meters
  • Scattered at 1,500' AGL
  • Rain
Temporary  (Probability 30%) Jan-23 @ 01:00 to Jan-23 @ 08:00
PROB30 TEMPO 2301/2308 5000 -RA OVC015
Visibility Clouds Conditions
5,005 meters
  • Overcast at 1,500' AGL
  • Light Rain
TAF LFRL 221100Z 2212/2312 30010KT 9999 BKN035 TEMPO 2212/2220 30010G20KT 3000 SHRA SCT015TCU PROB30 TEMPO 2301/2308 5000 -RA OVC015
Issued Jan-22 @ 11:00 UTC
(6 hours ago)
Valid From Jan-22 @ 12:00 UTC
(5 hours ago)
Valid To Jan-23 @ 12:00 UTC
(in 19 hours)
Jan-22 @ 12:00 - Jan-23 @ 12:00
Wind Visibility
300° at 10 knots 10,000+ meters
Clouds
  • Broken at 3,500' AGL
Temporary Jan-22 @ 12:00 - Jan-22 @ 20:00
Wind Visibility
300° at 10 knots
 Gusting to 20 knots
2,993 meters
Clouds
  • Scattered at 1,500' AGL
Conditions
  • Rain
Probability 30% Temporary Jan-23 @ 01:00 - Jan-23 @ 08:00
Clouds
  • Overcast at 1,500' AGL
Conditions
  • Light Rain